Time;durP1;ratioP1;P1;durP2;ratioP2;P2;SDS_P1;SDS_P2;PMS_P1;PMS_P2;Temp;Humidity;BMP_temperature;BMP_pressure;BME280_temperature;BME280_humidity;BME280_pressure;Samples;Min_cycle;Max_cycle;Signal;HPM_P1;HPM_P2
2024/01/29 00:00:45;;;;;;;4.18;2.33;;;24.70;54.10;;;;;;5062741;28;20144;-60
2024/01/29 00:03:11;;;;;;;7.78;1.55;;;24.60;54.30;;;;;;5064653;28;20155;-62
2024/01/29 00:05:38;;;;;;;3.65;0.80;;;24.60;54.00;;;;;;5066127;28;20089;-59
2024/01/29 00:08:05;;;;;;;1.85;0.80;;;24.50;53.60;;;;;;5063754;28;20087;-59
2024/01/29 00:10:31;;;;;;;2.20;1.05;;;24.40;53.60;;;;;;5064370;28;20080;-60
2024/01/29 00:12:58;;;;;;;1.27;0.90;;;24.30;53.60;;;;;;5063323;28;20092;-60
2024/01/29 00:15:24;;;;;;;5.40;1.00;;;24.30;53.50;;;;;;5066578;28;20122;-61
2024/01/29 00:17:51;;;;;;;6.57;1.48;;;24.40;53.50;;;;;;5069516;28;20073;-60
2024/01/29 00:20:17;;;;;;;4.72;1.15;;;24.40;53.90;;;;;;5065285;28;20065;-60
2024/01/29 00:22:44;;;;;;;3.47;2.03;;;24.20;54.00;;;;;;5076700;28;20100;-60
2024/01/29 00:25:10;;;;;;;5.30;1.20;;;24.00;54.50;;;;;;5067303;28;20121;-61
2024/01/29 00:27:37;;;;;;;6.30;1.42;;;24.00;54.50;;;;;;5082405;28;20528;-59
2024/01/29 00:30:04;;;;;;;3.67;1.23;;;24.00;54.30;;;;;;5067474;28;20073;-59
2024/01/29 00:32:32;;;;;;;2.83;1.17;;;23.90;53.80;;;;;;5065261;28;20123;-59
2024/01/29 00:34:58;;;;;;;8.70;1.30;;;23.80;54.40;;;;;;5066262;28;20122;-60
2024/01/29 00:37:26;;;;;;;13.25;12.20;;;23.60;55.50;;;;;;5069009;28;20088;-59
2024/01/29 00:39:53;;;;;;;2.63;1.00;;;23.40;55.60;;;;;;5067938;28;20073;-60
2024/01/29 00:42:20;;;;;;;4.35;1.50;;;23.30;55.90;;;;;;5064261;28;20117;-61
2024/01/29 00:44:48;;;;;;;4.57;1.98;;;23.20;56.50;;;;;;5067219;28;20520;-59
2024/01/29 00:47:14;;;;;;;12.15;2.03;;;23.10;56.80;;;;;;5067913;28;20073;-60
2024/01/29 00:49:41;;;;;;;5.00;2.03;;;23.00;56.90;;;;;;5067939;28;20065;-61
2024/01/29 00:52:07;;;;;;;12.65;2.80;;;22.90;56.80;;;;;;5066375;28;20077;-61
2024/01/29 00:54:34;;;;;;;9.27;3.15;;;22.80;57.60;;;;;;5068383;28;20115;-61
2024/01/29 00:57:00;;;;;;;47.58;38.90;;;22.70;57.80;;;;;;5067539;28;20081;-61
2024/01/29 00:59:26;;;;;;;29.60;23.90;;;22.60;57.80;;;;;;5067870;28;20119;-61
2024/01/29 01:01:53;;;;;;;18.27;16.52;;;22.50;58.10;;;;;;5065805;28;20097;-61
2024/01/29 01:04:19;;;;;;;5.30;2.72;;;22.40;58.40;;;;;;5067888;28;20088;-61
2024/01/29 01:06:46;;;;;;;9.95;2.90;;;22.30;59.00;;;;;;5067290;28;20495;-61
2024/01/29 01:09:14;;;;;;;8.27;3.28;;;22.20;59.50;;;;;;5068443;28;20081;-61
2024/01/29 01:11:42;;;;;;;9.95;4.85;;;22.00;59.80;;;;;;5067458;28;20078;-62
2024/01/29 01:14:08;;;;;;;11.25;3.85;;;21.90;59.70;;;;;;5067522;28;20092;-59
2024/01/29 01:16:35;;;;;;;12.63;3.65;;;21.70;59.60;;;;;;5067456;28;20138;-61
2024/01/29 01:19:01;;;;;;;8.25;4.40;;;21.60;60.10;;;;;;5065905;28;20484;-60
2024/01/29 01:21:28;;;;;;;12.00;4.93;;;21.40;60.90;;;;;;5067307;28;20105;-63
2024/01/29 01:23:54;;;;;;;17.42;5.90;;;21.30;61.30;;;;;;5066108;28;20153;-60
2024/01/29 01:26:20;;;;;;;14.05;6.13;;;21.20;61.80;;;;;;5066576;28;20442;-61
2024/01/29 01:28:47;;;;;;;15.98;5.88;;;21.00;62.10;;;;;;5063918;28;20073;-62
2024/01/29 01:31:13;;;;;;;14.13;6.35;;;20.90;62.10;;;;;;5066622;28;20081;-59
2024/01/29 01:33:40;;;;;;;20.42;6.53;;;20.70;61.80;;;;;;5073972;28;20216;-59
2024/01/29 01:36:07;;;;;;;16.17;6.18;;;20.60;63.00;;;;;;5070472;28;20596;-60
2024/01/29 01:38:33;;;;;;;18.63;5.72;;;20.60;63.00;;;;;;5066728;28;20111;-60
2024/01/29 01:41:00;;;;;;;14.35;4.82;;;20.40;63.70;;;;;;5066296;28;20077;-60
2024/01/29 01:43:26;;;;;;;15.90;5.35;;;20.30;63.80;;;;;;5066400;28;20506;-59
2024/01/29 01:46:18;;;;;;;12.13;5.10;;;20.30;64.30;;;;;;5066154;28;20223;-61
2024/01/29 01:48:45;;;;;;;17.02;5.35;;;20.10;64.50;;;;;;5065195;28;20095;-60
2024/01/29 01:51:12;;;;;;;14.45;5.07;;;20.10;64.60;;;;;;5066410;28;20088;-60
2024/01/29 01:53:39;;;;;;;20.80;5.60;;;20.00;64.90;;;;;;5066098;28;20213;-60
2024/01/29 01:56:07;;;;;;;31.80;6.28;;;19.90;65.70;;;;;;5064711;28;20201;-62
2024/01/29 01:58:34;;;;;;;22.85;5.75;;;19.80;66.60;;;;;;5065189;28;20089;-61
2024/01/29 02:01:01;;;;;;;32.83;5.85;;;19.70;67.80;;;;;;5064858;28;20081;-59
2024/01/29 02:03:28;;;;;;;34.00;5.97;;;19.60;68.60;;;;;;5078547;28;20073;-61
2024/01/29 02:05:55;;;;;;;23.05;5.50;;;19.40;69.60;;;;;;5063759;28;20122;-61
2024/01/29 02:08:22;;;;;;;28.80;5.90;;;19.40;70.10;;;;;;5065176;28;20064;-60
2024/01/29 02:10:50;;;;;;;35.92;6.22;;;19.30;71.20;;;;;;5064586;28;20073;-60
2024/01/29 02:13:17;;;;;;;28.55;5.70;;;19.30;72.20;;;;;;5063756;28;20542;-59
2024/01/29 02:15:43;;;;;;;33.25;6.22;;;19.20;72.60;;;;;;5063216;28;20719;-60
2024/01/29 02:18:10;;;;;;;33.42;5.78;;;19.00;73.10;;;;;;5066585;28;20133;-52
2024/01/29 02:20:36;;;;;;;27.08;6.20;;;18.90;74.70;;;;;;5074255;28;20116;-54
2024/01/29 02:23:04;;;;;;;32.58;7.05;;;18.90;75.20;;;;;;5064564;28;20105;-51
2024/01/29 02:25:30;;;;;;;43.35;7.57;;;18.70;75.90;;;;;;5067077;28;20178;-53
2024/01/29 02:27:57;;;;;;;25.90;7.97;;;18.70;77.00;;;;;;5066152;28;20242;-53
2024/01/29 02:30:23;;;;;;;37.95;8.77;;;18.60;77.70;;;;;;5067797;28;20073;-53
2024/01/29 02:32:49;;;;;;;43.05;13.52;;;18.50;77.90;;;;;;5063722;28;20509;-51
2024/01/29 02:35:16;;;;;;;39.25;14.52;;;18.40;78.50;;;;;;5066125;28;20089;-55
2024/01/29 02:37:42;;;;;;;36.95;15.25;;;18.30;79.30;;;;;;5064270;28;20112;-55
2024/01/29 02:40:10;;;;;;;51.05;15.02;;;18.20;79.80;;;;;;5066124;28;20069;-49
2024/01/29 02:42:37;;;;;;;37.72;13.35;;;18.10;80.50;;;;;;5064367;28;20246;-53
2024/01/29 02:45:04;;;;;;;47.70;11.95;;;18.00;81.00;;;;;;5067193;28;20482;-50
2024/01/29 02:47:30;;;;;;;52.95;12.75;;;17.90;81.50;;;;;;5065874;28;20235;-50
2024/01/29 02:49:57;;;;;;;48.63;12.63;;;17.90;81.80;;;;;;5065576;28;20085;-54
2024/01/29 02:52:23;;;;;;;38.80;11.65;;;17.80;82.00;;;;;;5067220;28;20088;-55
2024/01/29 02:54:50;;;;;;;41.20;12.65;;;17.80;82.60;;;;;;5065828;28;20156;-53
2024/01/29 02:57:23;;;;;;;39.03;11.40;;;17.70;82.90;;;;;;5065666;28;20745;-53
2024/01/29 02:59:50;;;;;;;42.47;11.60;;;17.70;83.10;;;;;;5066437;28;20178;-57
2024/01/29 03:02:16;;;;;;;49.92;12.48;;;17.70;83.50;;;;;;5063629;28;20205;-52
2024/01/29 03:04:43;;;;;;;50.55;12.10;;;17.70;83.90;;;;;;5066192;28;20528;-51
2024/01/29 03:07:09;;;;;;;52.88;12.10;;;17.70;83.80;;;;;;5063330;28;20679;-54
2024/01/29 03:09:36;;;;;;;50.95;11.63;;;17.60;84.00;;;;;;5065536;28;20184;-53
2024/01/29 03:12:03;;;;;;;67.55;11.50;;;17.60;84.10;;;;;;5063264;28;20104;-51
2024/01/29 03:14:30;;;;;;;62.95;13.40;;;17.50;84.30;;;;;;5062868;28;20084;-52
2024/01/29 03:16:57;;;;;;;69.50;13.63;;;17.50;84.60;;;;;;5064210;28;20081;-52
2024/01/29 03:19:23;;;;;;;66.68;13.75;;;17.50;84.50;;;;;;5065392;28;20084;-54
2024/01/29 03:21:50;;;;;;;49.50;12.32;;;17.40;84.80;;;;;;5065127;28;20085;-55
2024/01/29 03:24:16;;;;;;;66.03;12.85;;;17.30;86.20;;;;;;5063892;28;20552;-57
2024/01/29 03:26:43;;;;;;;47.95;12.30;;;17.30;85.50;;;;;;5065846;28;20089;-55
2024/01/29 03:29:09;;;;;;;41.70;12.00;;;17.30;85.60;;;;;;5066913;28;20073;-51
2024/01/29 03:31:36;;;;;;;70.07;13.88;;;17.30;86.00;;;;;;5066017;28;20081;-55
2024/01/29 03:34:02;;;;;;;48.80;12.57;;;17.30;86.00;;;;;;5065780;28;20078;-52
2024/01/29 03:36:29;;;;;;;57.75;12.25;;;17.20;86.60;;;;;;5063498;28;20525;-56
2024/01/29 03:38:55;;;;;;;42.05;11.18;;;17.20;85.80;;;;;;5067218;28;20552;-53
2024/01/29 03:41:21;;;;;;;49.53;12.02;;;17.20;86.00;;;;;;5063877;28;21775;-55
2024/01/29 03:43:48;;;;;;;55.40;12.23;;;17.10;86.50;;;;;;5063533;28;20127;-52
2024/01/29 03:46:14;;;;;;;56.42;13.27;;;17.10;86.60;;;;;;5068300;28;20595;-55
2024/01/29 03:48:41;;;;;;;65.45;13.50;;;17.00;87.10;;;;;;5066123;28;20559;-58
2024/01/29 03:51:07;;;;;;;53.72;14.60;;;17.00;87.70;;;;;;5067434;28;20077;-55
2024/01/29 03:53:34;;;;;;;42.90;12.32;;;16.90;88.30;;;;;;5070153;28;20092;-55
2024/01/29 03:56:00;;;;;;;50.35;12.32;;;16.90;88.30;;;;;;5068765;28;20081;-52
2024/01/29 03:58:27;;;;;;;54.50;12.82;;;16.90;87.30;;;;;;5068964;28;20069;-55
2024/01/29 04:00:53;;;;;;;64.53;13.38;;;16.80;87.00;;;;;;5066770;28;20073;-59
2024/01/29 04:03:20;;;;;;;44.17;11.27;;;16.80;87.80;;;;;;5064991;28;20156;-53
2024/01/29 04:05:47;;;;;;;50.13;12.10;;;16.70;88.60;;;;;;5064490;28;20101;-56
2024/01/29 04:08:14;;;;;;;46.72;13.80;;;16.70;88.40;;;;;;5066181;28;20488;-55
2024/01/29 04:10:41;;;;;;;48.03;13.05;;;16.70;89.00;;;;;;5064547;28;20165;-55
2024/01/29 04:13:07;;;;;;;46.55;13.60;;;16.60;89.40;;;;;;5065245;28;20139;-57
2024/01/29 04:15:34;;;;;;;49.13;14.90;;;16.50;89.90;;;;;;5064114;28;20081;-53
2024/01/29 04:18:00;;;;;;;53.90;13.85;;;16.50;90.10;;;;;;5083798;28;20136;-56
2024/01/29 04:20:27;;;;;;;62.30;15.38;;;16.40;90.40;;;;;;5076144;28;20077;-54
2024/01/29 04:22:53;;;;;;;54.50;15.20;;;16.40;90.60;;;;;;5062943;28;20104;-53
2024/01/29 04:25:20;;;;;;;51.47;17.73;;;16.30;91.20;;;;;;5063886;28;20168;-57
2024/01/29 04:27:47;;;;;;;60.75;17.90;;;16.30;91.20;;;;;;5064594;28;20748;-51
2024/01/29 04:30:14;;;;;;;61.08;18.40;;;16.20;90.80;;;;;;5063260;28;20084;-52
2024/01/29 04:32:40;;;;;;;74.47;20.25;;;16.20;90.90;;;;;;5065462;28;20084;-54
2024/01/29 04:35:07;;;;;;;80.03;23.90;;;16.20;90.90;;;;;;5066550;28;20235;-58
2024/01/29 04:37:33;;;;;;;88.13;24.77;;;16.20;91.30;;;;;;5064865;28;20073;-54
2024/01/29 04:40:00;;;;;;;91.97;31.98;;;16.20;91.30;;;;;;5062126;28;20073;-53
2024/01/29 04:42:26;;;;;;;90.22;31.08;;;16.10;91.20;;;;;;5062362;28;20127;-52
2024/01/29 04:44:53;;;;;;;81.78;30.75;;;16.10;91.90;;;;;;5061016;28;20080;-53
2024/01/29 04:47:19;;;;;;;85.88;30.45;;;16.00;92.20;;;;;;5063886;28;20080;-54
2024/01/29 04:49:46;;;;;;;84.05;30.63;;;16.00;91.80;;;;;;5067793;28;20073;-58
2024/01/29 04:52:12;;;;;;;90.32;30.17;;;16.10;92.20;;;;;;5063827;28;20474;-53
2024/01/29 04:54:39;;;;;;;84.18;27.75;;;16.00;92.20;;;;;;5063537;28;20425;-54
2024/01/29 04:57:05;;;;;;;83.53;29.08;;;16.00;92.40;;;;;;5061160;28;20123;-52
2024/01/29 04:59:32;;;;;;;74.10;29.00;;;15.90;92.30;;;;;;5063795;28;20069;-55
2024/01/29 05:01:58;;;;;;;85.45;31.17;;;16.00;92.40;;;;;;5065491;28;20162;-58
2024/01/29 05:04:25;;;;;;;81.47;32.28;;;15.90;92.60;;;;;;5064783;28;20077;-51
2024/01/29 05:06:52;;;;;;;102.18;33.85;;;15.90;92.70;;;;;;5065232;28;20066;-55
2024/01/29 05:09:19;;;;;;;108.53;33.45;;;15.80;92.90;;;;;;5063735;28;20207;-52
2024/01/29 05:11:45;;;;;;;119.63;34.72;;;15.80;93.10;;;;;;5061124;28;20088;-55
2024/01/29 05:14:12;;;;;;;98.72;33.45;;;15.80;93.40;;;;;;5063272;28;20069;-58
2024/01/29 05:16:38;;;;;;;93.70;31.55;;;15.80;93.90;;;;;;5059835;28;20130;-51
2024/01/29 05:19:05;;;;;;;98.63;34.90;;;15.70;93.90;;;;;;5065987;28;20073;-55
2024/01/29 05:21:31;;;;;;;100.03;33.80;;;15.70;94.00;;;;;;5064098;28;20114;-55
2024/01/29 05:23:57;;;;;;;106.55;32.42;;;15.60;94.70;;;;;;5062844;28;20088;-53
2024/01/29 05:26:24;;;;;;;100.13;33.15;;;15.50;94.90;;;;;;5065772;28;20084;-52
2024/01/29 05:28:50;;;;;;;86.95;32.63;;;15.50;94.80;;;;;;5061881;28;20084;-51
2024/01/29 05:31:17;;;;;;;104.15;34.55;;;15.50;95.10;;;;;;5064831;28;20525;-51
2024/01/29 05:33:43;;;;;;;101.45;34.80;;;15.40;95.00;;;;;;5062985;28;20420;-56
2024/01/29 05:36:10;;;;;;;115.50;33.42;;;15.40;95.00;;;;;;5064102;28;20174;-51
2024/01/29 05:38:36;;;;;;;114.88;35.13;;;15.40;95.10;;;;;;5063522;28;20106;-54
2024/01/29 05:41:03;;;;;;;104.55;35.15;;;15.40;95.30;;;;;;5061058;28;20073;-56
2024/01/29 05:43:29;;;;;;;112.72;35.20;;;15.40;95.60;;;;;;5063345;28;20124;-54
2024/01/29 05:45:56;;;;;;;105.82;34.60;;;15.30;96.10;;;;;;5061165;28;20084;-53
2024/01/29 05:48:22;;;;;;;104.25;34.22;;;15.20;96.60;;;;;;5059735;28;20516;-54
2024/01/29 05:50:49;;;;;;;112.72;36.47;;;15.20;97.00;;;;;;5068752;28;20171;-54
2024/01/29 05:53:19;;;;;;;113.28;35.58;;;15.20;97.10;;;;;;5059966;28;20080;-51
2024/01/29 05:55:46;;;;;;;101.93;33.38;;;15.10;97.00;;;;;;5063493;28;20122;-65
2024/01/29 05:58:14;;;;;;;125.65;35.10;;;15.60;97.10;;;;;;5065485;28;20196;-64
2024/01/29 06:00:40;;;;;;;97.78;33.90;;;16.10;96.80;;;;;;5063674;28;20072;-52
2024/01/29 06:03:07;;;;;;;92.53;33.63;;;16.50;96.00;;;;;;5065546;28;20234;-63
2024/01/29 06:05:33;;;;;;;94.10;32.92;;;16.80;94.90;;;;;;5061722;28;20081;-61
2024/01/29 06:08:00;;;;;;;112.50;34.28;;;17.10;94.30;;;;;;5064478;28;20463;-64
2024/01/29 06:10:26;;;;;;;98.43;33.92;;;17.00;94.10;;;;;;5064238;28;20085;-65
2024/01/29 06:12:53;;;;;;;97.90;34.88;;;17.40;93.50;;;;;;5060810;28;20487;-66
2024/01/29 06:15:19;;;;;;;116.30;35.97;;;17.30;92.70;;;;;;5062761;28;20443;-65
2024/01/29 06:17:46;;;;;;;97.35;34.40;;;17.30;92.90;;;;;;5060833;28;20084;-61
2024/01/29 06:20:13;;;;;;;93.50;35.10;;;17.40;92.50;;;;;;5060866;28;20095;-62
2024/01/29 06:22:39;;;;;;;109.15;34.03;;;17.30;93.30;;;;;;5057778;28;20153;-63
2024/01/29 06:25:06;;;;;;;118.43;37.60;;;17.30;92.80;;;;;;5063566;28;20138;-62
2024/01/29 06:27:33;;;;;;;100.65;35.80;;;17.20;92.80;;;;;;5064219;28;20070;-62
2024/01/29 06:29:59;;;;;;;123.40;36.60;;;16.90;93.80;;;;;;5065335;28;20198;-63
2024/01/29 06:32:26;;;;;;;120.18;37.55;;;17.00;93.80;;;;;;5063424;28;20081;-61
2024/01/29 06:34:56;;;;;;;120.75;37.05;;;16.80;93.80;;;;;;5059885;28;20069;-61
2024/01/29 06:37:24;;;;;;;98.82;36.42;;;16.80;94.10;;;;;;5065527;28;20092;-63
2024/01/29 06:39:51;;;;;;;105.38;39.03;;;16.60;94.70;;;;;;5061363;28;20065;-61
2024/01/29 06:42:17;;;;;;;114.53;38.90;;;16.60;94.60;;;;;;5059529;28;20580;-62
2024/01/29 06:44:44;;;;;;;120.40;38.38;;;16.60;94.60;;;;;;5061254;28;20080;-63
2024/01/29 06:47:10;;;;;;;99.63;36.92;;;16.60;94.70;;;;;;5058839;28;20069;-61
2024/01/29 06:49:37;;;;;;;104.43;36.92;;;16.40;95.00;;;;;;5061502;28;20196;-60
2024/01/29 06:52:03;;;;;;;125.55;39.97;;;16.30;95.90;;;;;;5065598;28;20069;-60
2024/01/29 06:54:30;;;;;;;108.47;38.35;;;16.20;95.70;;;;;;5060793;28;20536;-61
2024/01/29 06:56:56;;;;;;;116.95;38.97;;;16.10;96.00;;;;;;5064226;28;20104;-60
2024/01/29 06:59:26;;;;;;;99.38;40.03;;;16.10;95.90;;;;;;5060238;28;20169;-60
2024/01/29 07:01:57;;;;;;;108.43;39.22;;;16.30;95.70;;;;;;5062345;28;20112;-61
2024/01/29 07:04:23;;;;;;;137.35;54.30;;;16.20;96.20;;;;;;5056974;28;20073;-60
2024/01/29 07:06:50;;;;;;;102.53;40.40;;;16.10;96.30;;;;;;5062132;28;20073;-61
2024/01/29 07:09:16;;;;;;;111.45;37.78;;;16.30;95.80;;;;;;5058805;28;20451;-61
2024/01/29 07:11:44;;;;;;;100.60;38.10;;;16.30;95.50;;;;;;5065217;28;20070;-61
2024/01/29 07:14:10;;;;;;;99.00;36.78;;;16.00;96.10;;;;;;5060092;28;20522;-61
2024/01/29 07:16:37;;;;;;;117.45;39.03;;;15.90;96.00;;;;;;5059486;28;20080;-62
2024/01/29 07:19:03;;;;;;;97.43;38.03;;;16.00;95.80;;;;;;5063016;28;20168;-62
2024/01/29 07:21:30;;;;;;;80.93;33.90;;;15.90;96.00;;;;;;5064987;28;20074;-63
2024/01/29 07:23:56;;;;;;;89.57;33.08;;;15.90;96.10;;;;;;5066697;28;20072;-62
2024/01/29 07:26:24;;;;;;;90.95;32.75;;;15.70;96.40;;;;;;5075133;28;20088;-62
2024/01/29 07:28:50;;;;;;;74.38;32.15;;;15.60;97.00;;;;;;5064871;28;20073;-62
2024/01/29 07:31:17;;;;;;;91.18;34.08;;;15.60;97.10;;;;;;5069885;28;20103;-61
2024/01/29 07:33:44;;;;;;;79.35;30.08;;;15.50;97.30;;;;;;5064945;28;20667;-61
2024/01/29 07:36:10;;;;;;;89.38;33.00;;;15.40;97.00;;;;;;5061459;28;20069;-60
2024/01/29 07:38:37;;;;;;;100.47;33.33;;;15.50;96.90;;;;;;5060303;28;20650;-61
2024/01/29 07:41:03;;;;;;;81.93;31.95;;;15.50;96.90;;;;;;5060148;28;20120;-61
2024/01/29 07:43:33;;;;;;;78.65;29.75;;;15.50;97.00;;;;;;5058981;28;20113;-60
2024/01/29 07:46:00;;;;;;;84.82;32.22;;;15.50;96.70;;;;;;5059949;28;20539;-60
2024/01/29 07:48:26;;;;;;;72.05;29.38;;;15.50;97.00;;;;;;5063973;28;20492;-61
2024/01/29 07:50:52;;;;;;;88.00;32.70;;;15.40;96.90;;;;;;5058432;28;20578;-61
2024/01/29 07:53:19;;;;;;;96.22;30.88;;;15.40;97.60;;;;;;5060288;28;20163;-60
2024/01/29 07:55:45;;;;;;;92.95;32.95;;;15.20;97.90;;;;;;5063227;28;20069;-60
2024/01/29 07:58:12;;;;;;;80.20;32.65;;;15.30;97.60;;;;;;5058795;28;20167;-61
2024/01/29 08:00:39;;;;;;;82.05;32.40;;;15.20;97.90;;;;;;5062392;28;20073;-61
2024/01/29 08:03:06;;;;;;;86.45;33.05;;;15.20;98.10;;;;;;5063010;28;20155;-60
2024/01/29 08:05:33;;;;;;;79.45;33.88;;;15.20;97.90;;;;;;5061310;28;20096;-60
2024/01/29 08:07:59;;;;;;;83.35;30.90;;;15.10;98.00;;;;;;5058639;28;21502;-60
2024/01/29 08:10:25;;;;;;;88.38;30.30;;;15.10;97.90;;;;;;5061531;28;20081;-61
2024/01/29 08:12:52;;;;;;;73.82;29.30;;;15.10;97.90;;;;;;5060612;28;20606;-61
2024/01/29 08:15:19;;;;;;;60.70;24.65;;;15.00;97.90;;;;;;5058830;28;20085;-62
2024/01/29 08:17:45;;;;;;;69.05;24.63;;;15.00;98.00;;;;;;5059419;28;20091;-62
2024/01/29 08:20:12;;;;;;;66.05;23.00;;;15.10;97.30;;;;;;5061876;28;20070;-61
2024/01/29 08:22:38;;;;;;;53.97;20.55;;;14.90;97.30;;;;;;5064314;28;20120;-62
2024/01/29 08:25:05;;;;;;;48.08;17.27;;;14.90;97.30;;;;;;5058575;28;20217;-62
2024/01/29 08:27:32;;;;;;;49.50;18.15;;;14.80;96.60;;;;;;5059358;28;20115;-62
2024/01/29 08:29:58;;;;;;;36.90;15.55;;;14.80;97.00;;;;;;5062039;28;20132;-62
2024/01/29 08:32:25;;;;;;;38.85;14.85;;;14.80;97.10;;;;;;5060866;28;20087;-62
2024/01/29 08:34:51;;;;;;;37.13;15.60;;;14.90;97.10;;;;;;5059399;28;20077;-62
2024/01/29 08:37:18;;;;;;;35.88;15.10;;;14.80;97.60;;;;;;5063867;28;20239;-61
2024/01/29 08:39:44;;;;;;;41.78;15.75;;;14.70;97.20;;;;;;5065972;28;20070;-61
2024/01/29 08:42:11;;;;;;;39.10;16.27;;;14.60;97.70;;;;;;5061971;28;20144;-62
2024/01/29 08:44:38;;;;;;;39.30;16.23;;;14.60;97.60;;;;;;5061772;28;20122;-62
2024/01/29 08:47:04;;;;;;;41.80;17.05;;;14.60;98.10;;;;;;5062084;28;20517;-62
2024/01/29 08:49:31;;;;;;;44.25;17.10;;;14.50;98.20;;;;;;5064001;28;20157;-61
2024/01/29 08:51:57;;;;;;;43.13;16.27;;;14.50;98.10;;;;;;5059890;28;20123;-62
2024/01/29 08:54:23;;;;;;;69.28;32.97;;;14.50;98.40;;;;;;5062850;28;20081;-62
2024/01/29 08:56:50;;;;;;;34.10;15.80;;;14.30;99.10;;;;;;5062724;28;20171;-62
2024/01/29 08:59:19;;;;;;;37.58;14.93;;;14.30;98.40;;;;;;5064165;28;20523;-62
2024/01/29 09:01:46;;;;;;;44.80;14.45;;;14.30;98.60;;;;;;5062058;28;20121;-62
2024/01/29 09:04:12;;;;;;;35.53;13.95;;;14.20;98.80;;;;;;5062885;28;20166;-62
2024/01/29 09:06:39;;;;;;;32.17;12.52;;;14.10;99.00;;;;;;5064380;28;20101;-62
2024/01/29 09:09:05;;;;;;;46.85;11.55;;;14.10;99.30;;;;;;5062591;28;20084;-61
2024/01/29 09:11:32;;;;;;;35.28;12.32;;;14.30;98.60;;;;;;5063065;28;20458;-62
2024/01/29 09:13:58;;;;;;;39.88;12.52;;;14.20;98.60;;;;;;5059530;28;20094;-62
2024/01/29 09:16:24;;;;;;;32.88;11.15;;;14.20;98.40;;;;;;5060648;28;20084;-62
2024/01/29 09:18:51;;;;;;;23.90;9.48;;;14.30;98.20;;;;;;5062997;28;20080;-62
2024/01/29 09:21:17;;;;;;;27.00;9.15;;;14.20;98.60;;;;;;5061241;28;20078;-62
2024/01/29 09:23:44;;;;;;;27.17;8.23;;;14.00;98.80;;;;;;5060199;28;20085;-62
2024/01/29 09:26:10;;;;;;;26.90;8.07;;;13.90;99.00;;;;;;5060700;28;20123;-62
2024/01/29 09:28:37;;;;;;;22.52;7.32;;;13.90;99.00;;;;;;5064201;28;20116;-62
2024/01/29 09:31:04;;;;;;;18.05;5.82;;;13.80;99.20;;;;;;5061096;28;20440;-62
2024/01/29 09:33:30;;;;;;;18.52;6.40;;;13.80;99.40;;;;;;5062344;28;20555;-62
2024/01/29 09:35:57;;;;;;;20.08;5.60;;;13.90;99.50;;;;;;5060466;28;21156;-62
2024/01/29 09:38:24;;;;;;;25.05;5.82;;;13.80;99.10;;;;;;5059959;28;20169;-61
2024/01/29 09:40:51;;;;;;;20.73;5.63;;;13.80;99.30;;;;;;5059716;28;20065;-62
2024/01/29 09:43:18;;;;;;;16.55;5.35;;;13.80;99.50;;;;;;5063360;28;20194;-62
2024/01/29 09:45:45;;;;;;;21.65;6.13;;;13.80;99.80;;;;;;5060690;28;20123;-62
2024/01/29 09:48:14;;;;;;;16.65;4.68;;;13.80;99.70;;;;;;5059739;28;20413;-62
2024/01/29 09:50:42;;;;;;;15.77;4.82;;;13.80;99.50;;;;;;5062772;28;20100;-62
2024/01/29 09:53:11;;;;;;;13.80;4.05;;;13.70;99.90;;;;;;5061179;28;20160;-62
2024/01/29 09:55:38;;;;;;;8.00;3.80;;;13.70;99.90;;;;;;5059436;28;20096;-62
2024/01/29 09:58:04;;;;;;;10.75;3.35;;;13.70;99.40;;;;;;5060112;28;20073;-62
2024/01/29 10:00:31;;;;;;;5.00;2.75;;;13.70;99.50;;;;;;5058179;28;21611;-62
2024/01/29 10:03:00;;;;;;;9.73;2.50;;;13.70;99.20;;;;;;5064959;28;20105;-62
2024/01/29 10:05:30;;;;;;;4.78;1.90;;;13.70;98.90;;;;;;5063116;28;21680;-61
2024/01/29 10:08:01;;;;;;;3.38;1.70;;;13.70;98.00;;;;;;5061161;28;21730;-61
2024/01/29 10:10:28;;;;;;;5.53;1.95;;;13.80;97.50;;;;;;5058933;28;20074;-62
2024/01/29 10:13:07;;;;;;;2.65;1.42;;;14.00;97.00;;;;;;5063660;28;20527;-62
2024/01/29 10:15:34;;;;;;;3.35;1.42;;;14.10;96.20;;;;;;5064910;28;20107;-61
2024/01/29 10:18:01;;;;;;;3.75;1.15;;;14.00;96.40;;;;;;5063894;28;20076;-61
2024/01/29 10:20:29;;;;;;;2.70;0.98;;;14.10;95.50;;;;;;5079753;28;20092;-62
2024/01/29 10:23:02;;;;;;;1.08;0.90;;;14.10;94.70;;;;;;5061805;28;20196;-60
2024/01/29 10:25:31;;;;;;;3.13;1.00;;;14.20;94.60;;;;;;5063192;28;20226;-61
2024/01/29 10:28:14;;;;;;;3.83;1.10;;;14.20;93.80;;;;;;5059652;28;20439;-63
2024/01/29 10:30:41;;;;;;;3.85;1.00;;;14.30;93.30;;;;;;5058972;28;20089;-63
2024/01/29 10:33:08;;;;;;;3.08;1.13;;;14.40;93.10;;;;;;5059134;28;20455;-62
2024/01/29 10:35:36;;;;;;;1.33;0.80;;;14.40;92.80;;;;;;5061277;28;20536;-62
2024/01/29 10:38:04;;;;;;;3.63;1.10;;;14.50;92.80;;;;;;5065652;28;20077;-62
2024/01/29 10:40:36;;;;;;;3.50;0.90;;;14.50;92.30;;;;;;5065531;28;20444;-61
2024/01/29 10:43:03;;;;;;;3.25;0.90;;;14.50;91.90;;;;;;5065601;28;20456;-62
2024/01/29 10:45:32;;;;;;;1.52;0.80;;;14.60;91.60;;;;;;5063381;28;20070;-62
2024/01/29 10:48:23;;;;;;;1.13;0.82;;;14.60;91.80;;;;;;5061483;28;20119;-62
2024/01/29 10:50:51;;;;;;;2.30;0.77;;;14.60;92.40;;;;;;5061711;28;20135;-62
2024/01/29 10:53:19;;;;;;;1.10;0.80;;;14.50;92.80;;;;;;5058877;28;20097;-61
2024/01/29 10:55:51;;;;;;;5.35;0.98;;;14.40;92.70;;;;;;5061240;28;20107;-64
2024/01/29 10:58:19;;;;;;;1.67;0.80;;;14.40;93.40;;;;;;5058151;28;20077;-62
2024/01/29 11:00:46;;;;;;;1.75;0.88;;;14.40;93.00;;;;;;5058892;28;20159;-62
2024/01/29 11:03:13;;;;;;;2.13;1.00;;;14.40;93.20;;;;;;5060934;28;20093;-62
2024/01/29 11:05:42;;;;;;;3.55;1.02;;;14.30;93.60;;;;;;5061162;28;20481;-62
2024/01/29 11:08:17;;;;;;;0.93;0.60;;;14.10;94.10;;;;;;5058792;28;20447;-62
2024/01/29 11:10:43;;;;;;;1.55;0.90;;;14.00;94.60;;;;;;5058526;28;20073;-63
2024/01/29 11:13:12;;;;;;;4.18;1.00;;;13.90;95.00;;;;;;5059858;28;20077;-62
2024/01/29 11:15:41;;;;;;;3.63;1.00;;;13.80;95.00;;;;;;5061201;28;20160;-62
2024/01/29 11:18:10;;;;;;;2.65;0.80;;;13.80;94.70;;;;;;5059311;28;20112;-62
2024/01/29 11:20:40;;;;;;;2.78;0.90;;;13.70;95.00;;;;;;5060071;28;20088;-63
2024/01/29 11:23:10;;;;;;;1.63;0.90;;;13.70;95.40;;;;;;5061037;28;20104;-62
2024/01/29 11:25:37;;;;;;;0.95;0.85;;;13.80;95.20;;;;;;5058791;28;20072;-62
2024/01/29 11:28:07;;;;;;;1.30;1.00;;;13.70;95.20;;;;;;5059457;28;20077;-62
2024/01/29 11:30:34;;;;;;;4.32;0.90;;;13.70;95.20;;;;;;5060075;28;20109;-62
2024/01/29 11:33:14;;;;;;;1.55;1.08;;;13.60;95.30;;;;;;5059635;28;20069;-62
2024/01/29 11:35:42;;;;;;;2.83;1.13;;;13.60;95.80;;;;;;5060209;28;20081;-62
2024/01/29 11:38:15;;;;;;;3.25;1.42;;;13.50;96.50;;;;;;5060299;28;20076;-62
2024/01/29 11:40:43;;;;;;;2.03;1.20;;;13.40;96.80;;;;;;5057723;28;21073;-62
2024/01/29 11:43:20;;;;;;;4.90;1.02;;;13.40;96.50;;;;;;5056985;28;20136;-61
2024/01/29 11:45:47;;;;;;;;;;;13.40;96.60;;;;;;5060731;28;20073;-60
2024/01/29 11:48:15;;;;;;;5.22;1.38;;;13.30;96.70;;;;;;5058530;28;19983;-60
2024/01/29 11:50:46;;;;;;;3.95;1.23;;;13.30;96.60;;;;;;5059403;28;20088;-64
2024/01/29 11:53:17;;;;;;;2.95;1.65;;;13.30;96.90;;;;;;5058595;28;20073;-60
2024/01/29 11:55:49;;;;;;;5.78;1.55;;;13.20;97.80;;;;;;5060205;28;20150;-60
2024/01/29 11:58:20;;;;;;;4.68;1.80;;;13.10;97.70;;;;;;5057176;28;20167;-60
2024/01/29 12:00:49;;;;;;;10.52;2.50;;;13.10;97.60;;;;;;5059018;28;20107;-61
2024/01/29 12:03:21;;;;;;;13.27;2.60;;;13.10;97.90;;;;;;5059612;28;21277;-62
2024/01/29 12:05:51;;;;;;;7.20;3.22;;;13.10;98.00;;;;;;5056869;28;20138;-63
2024/01/29 12:08:20;;;;;;;15.48;4.07;;;13.00;97.70;;;;;;5061037;28;20073;-62
2024/01/29 12:10:48;;;;;;;9.82;3.80;;;12.90;98.40;;;;;;5060756;28;20563;-62
2024/01/29 12:13:19;;;;;;;7.30;4.30;;;12.90;98.80;;;;;;5068474;28;20206;-62
2024/01/29 12:15:47;;;;;;;11.60;4.68;;;12.90;98.70;;;;;;5061589;28;20081;-62
2024/01/29 12:18:24;;;;;;;18.08;5.15;;;12.90;99.20;;;;;;5062359;28;20108;-61
2024/01/29 12:20:51;;;;;;;11.13;4.72;;;12.90;99.00;;;;;;5064472;28;20155;-62
2024/01/29 12:23:21;;;;;;;15.20;5.55;;;12.80;99.30;;;;;;5063119;28;20096;-62
2024/01/29 12:25:57;;;;;;;16.00;5.05;;;12.80;99.10;;;;;;5061868;28;20156;-62
2024/01/29 12:28:27;;;;;;;15.32;5.57;;;12.70;99.10;;;;;;5061310;28;20077;-61
2024/01/29 12:31:00;;;;;;;11.05;4.68;;;12.70;99.70;;;;;;5064501;28;20093;-62
2024/01/29 12:33:30;;;;;;;23.55;6.65;;;12.70;99.90;;;;;;5061584;28;20077;-62